Terminal Aerodrome Forecast
Issued by NWS Shreveport, LA

Home | Current Version | Previous Version | Text Only | Print | Product List | Glossary On
Versions: 1 2 3 4 5 6 7 8 9 10 11 12 13 14 15 16 17 18 19 20
000
FTUS44 KSHV 042300
TAFGGG
TAF
KGGG 042340Z 0500/0524 04015G25KT P6SM -RA OVC008
      TEMPO 0500/0503 36012KT 3SM TSRA BR SCT010 OVC020CB
     FM051000 01015KT 5SM -FZRA BR OVC015
     FM051300 04012G20KT 5SM -SN BR OVC025
     FM051500 03012KT P6SM BKN035=

USA.gov is the U.S. government's official web portal to all federal, state and local government web resources and services.